createdAt,value
2018-08-18T00:00:49.351Z,93.54
2018-08-18T00:01:49.361Z,94.05
2018-08-18T00:02:49.325Z,94.26
2018-08-18T00:03:49.321Z,94.15
2018-08-18T00:04:49.309Z,93.95
2018-08-18T00:05:49.288Z,94.46
2018-08-18T00:06:49.304Z,94.87
2018-08-18T00:07:49.270Z,93.74
2018-08-18T00:08:49.255Z,94.87
2018-08-18T00:09:49.253Z,93.64
2018-08-18T00:10:49.236Z,93.33
2018-08-18T00:11:49.252Z,93.64
2018-08-18T00:12:49.210Z,93.24
2018-08-18T00:13:49.199Z,93.54
2018-08-18T00:14:49.191Z,93.85
2018-08-18T00:15:49.175Z,93.24
2018-08-18T00:16:49.162Z,93.48
2018-08-18T00:17:49.178Z,93.85
2018-08-18T00:18:49.161Z,93.85
2018-08-18T00:19:49.131Z,94.66
2018-08-18T00:20:49.122Z,93.59
2018-08-18T00:21:49.105Z,93.33
2018-08-18T00:22:49.120Z,94.56
2018-08-18T00:23:49.082Z,94.56
2018-08-18T00:24:49.077Z,94.20
2018-08-18T00:25:49.059Z,94.91
2018-08-18T00:26:49.052Z,94.20
2018-08-18T00:27:49.063Z,94.09
2018-08-18T00:28:49.029Z,95.01
2018-08-18T00:29:49.009Z,94.71
2018-08-18T00:30:49.007Z,94.81
2018-08-18T00:31:48.985Z,94.46
2018-08-18T00:32:49.012Z,93.99
2018-08-18T00:33:48.965Z,93.95
2018-08-18T00:34:48.958Z,93.99
2018-08-18T00:35:48.940Z,94.40
2018-08-18T00:36:48.936Z,94.09
2018-08-18T00:37:48.916Z,93.38
2018-08-18T00:38:48.935Z,94.09
2018-08-18T00:39:48.899Z,93.85
2018-08-18T00:40:48.884Z,93.59
2018-08-18T00:41:48.871Z,93.38
2018-08-18T00:42:48.866Z,93.38
2018-08-18T00:43:48.878Z,93.69
2018-08-18T00:44:48.837Z,93.79
2018-08-18T00:45:48.824Z,93.99
2018-08-18T00:46:48.814Z,93.89
2018-08-18T00:47:48.801Z,93.79
2018-08-18T00:48:48.827Z,93.93
2018-08-18T00:49:48.773Z,93.63
2018-08-18T00:50:48.770Z,93.52
2018-08-18T00:51:48.751Z,93.73
2018-08-18T00:52:48.743Z,93.63
2018-08-18T00:53:48.731Z,93.84
2018-08-18T00:54:48.740Z,94.04
2018-08-18T00:55:48.710Z,94.34
2018-08-18T00:56:48.697Z,94.95
2018-08-18T00:57:48.686Z,94.85
2018-08-18T00:58:48.679Z,94.85
2018-08-18T00:59:48.681Z,94.65
2018-08-18T01:00:48.654Z,95.31
2018-08-18T01:01:48.683Z,94.79
2018-08-18T01:02:48.623Z,94.90
2018-08-18T01:03:48.615Z,95.41
2018-08-18T01:04:48.629Z,95.31
2018-08-18T01:05:48.595Z,94.90
2018-08-18T01:06:48.622Z,95.31
2018-08-18T01:07:48.567Z,95.15
2018-08-18T01:08:48.560Z,94.70
2018-08-18T01:09:48.539Z,94.79
2018-08-18T01:10:48.619Z,94.90
2018-08-18T01:11:48.651Z,94.70
2018-08-18T01:12:48.530Z,94.70
2018-08-18T01:13:48.658Z,95.56
2018-08-18T01:14:48.582Z,94.84
2018-08-18T01:15:48.519Z,94.94
2018-08-18T01:16:48.463Z,95.04
2018-08-18T01:17:48.448Z,95.56
2018-08-18T01:18:48.435Z,95.65
2018-08-18T01:19:48.433Z,95.25
2018-08-18T01:20:48.436Z,95.65
2018-08-18T01:21:48.403Z,95.35
2018-08-18T01:22:48.395Z,95.45
2018-08-18T01:23:48.376Z,95.80
2018-08-18T01:24:48.371Z,95.65
2018-08-18T01:25:48.381Z,96.31
2018-08-18T01:26:48.348Z,96.37
2018-08-18T01:27:48.333Z,96.88
2018-08-18T01:28:54.828Z,96.27
2018-08-18T01:29:48.309Z,96.88
2018-08-18T01:30:48.332Z,96.68
2018-08-18T01:31:48.278Z,96.47
2018-08-18T01:32:48.276Z,96.68
2018-08-18T01:33:48.256Z,96.68
2018-08-18T01:34:48.254Z,96.88
2018-08-18T01:35:48.233Z,96.58
2018-08-18T01:36:48.251Z,96.78
2018-08-18T01:37:48.212Z,96.47
2018-08-18T01:38:48.197Z,96.68
2018-08-18T01:39:48.194Z,96.37
2018-08-18T01:40:48.177Z,96.42
2018-08-18T01:41:48.190Z,96.21
2018-08-18T01:42:48.153Z,96.27
2018-08-18T01:43:48.199Z,96.27
2018-08-18T01:44:48.127Z,96.68
2018-08-18T01:45:48.122Z,96.27
2018-08-18T01:46:48.132Z,96.27
2018-08-18T01:47:48.102Z,96.58
2018-08-18T01:48:48.078Z,96.47
2018-08-18T01:49:48.077Z,96.37
2018-08-18T01:50:48.061Z,96.62
2018-08-18T01:51:48.082Z,96.68
2018-08-18T01:52:48.034Z,96.27
2018-08-18T01:53:48.026Z,96.47
2018-08-18T01:54:48.017Z,96.68
2018-08-18T01:55:47.995Z,96.37
2018-08-18T01:56:47.983Z,96.27
2018-08-18T01:57:48.003Z,96.78
2018-08-18T01:58:47.961Z,96.27
2018-08-18T01:59:47.958Z,96.47
2018-08-18T02:00:47.939Z,96.58
2018-08-18T02:01:47.930Z,96.06
2018-08-18T02:02:47.940Z,96.98
2018-08-18T02:03:47.907Z,96.58
2018-08-18T02:04:47.900Z,96.37
2018-08-18T02:05:47.878Z,96.78
2018-08-18T02:06:47.876Z,96.37
2018-08-18T02:07:47.886Z,96.37
2018-08-18T02:08:47.850Z,96.27
2018-08-18T02:09:47.836Z,96.47
2018-08-18T02:10:47.826Z,96.17
2018-08-18T02:11:47.812Z,96.58
2018-08-18T02:12:47.804Z,96.83
2018-08-18T02:13:47.809Z,96.88
2018-08-18T02:14:47.774Z,96.37
2018-08-18T02:15:47.768Z,96.47
2018-08-18T02:16:47.754Z,96.27
2018-08-18T02:17:47.771Z,97.29
2018-08-18T02:18:47.724Z,97.29
2018-08-18T02:19:47.724Z,96.58
2018-08-18T02:20:47.702Z,97.39
2018-08-18T02:21:47.699Z,97.03
2018-08-18T02:22:47.680Z,96.51
2018-08-18T02:23:47.697Z,96.83
2018-08-18T02:24:47.660Z,96.31
2018-08-18T02:25:47.649Z,96.42
2018-08-18T02:26:47.633Z,96.42
2018-08-18T02:27:47.625Z,96.62
2018-08-18T02:28:47.631Z,96.62
2018-08-18T02:29:47.605Z,96.72
2018-08-18T02:30:47.590Z,96.62
2018-08-18T02:31:47.575Z,97.08
2018-08-18T02:32:47.564Z,97.33
2018-08-18T02:33:47.582Z,97.39
2018-08-18T02:34:47.545Z,97.70
2018-08-18T02:35:47.523Z,97.60
2018-08-18T02:36:47.516Z,97.19
2018-08-18T02:37:47.500Z,97.74
2018-08-18T02:38:47.517Z,97.03
2018-08-18T02:39:47.483Z,97.33
2018-08-18T02:40:47.465Z,97.19
2018-08-18T02:41:47.463Z,97.03
2018-08-18T02:42:47.446Z,96.92
2018-08-18T02:43:47.462Z,97.13
2018-08-18T02:44:47.422Z,97.24
2018-08-18T02:45:47.411Z,97.24
2018-08-18T02:46:47.399Z,97.33
2018-08-18T02:47:47.388Z,96.51
2018-08-18T02:48:47.379Z,97.13
2018-08-18T02:49:47.389Z,97.03
2018-08-18T02:50:47.347Z,97.24
2018-08-18T02:51:47.345Z,97.19
2018-08-18T02:52:47.323Z,96.92
2018-08-18T02:53:47.324Z,97.24
2018-08-18T02:54:47.328Z,97.33
2018-08-18T02:55:47.290Z,97.19
2018-08-18T02:56:47.278Z,97.64
2018-08-18T02:57:47.273Z,97.13
2018-08-18T02:58:47.254Z,97.03
2018-08-18T02:59:47.270Z,97.39
2018-08-18T03:00:47.229Z,97.13
2018-08-18T03:01:47.225Z,97.60
2018-08-18T03:02:47.204Z,97.49
2018-08-18T03:03:47.202Z,97.08
2018-08-18T03:04:47.218Z,97.64
2018-08-18T03:05:47.178Z,97.60
2018-08-18T03:06:47.170Z,97.29
2018-08-18T03:07:47.182Z,97.49
2018-08-18T03:08:47.136Z,97.19
2018-08-18T03:09:47.128Z,96.72
2018-08-18T03:10:47.137Z,97.08
2018-08-18T03:11:47.106Z,97.13
2018-08-18T03:12:47.087Z,97.19
2018-08-18T03:13:47.085Z,97.29
2018-08-18T03:14:47.064Z,97.54
2018-08-18T03:15:47.085Z,97.29
2018-08-18T03:16:47.048Z,97.13
2018-08-18T03:17:47.029Z,97.64
2018-08-18T03:18:47.017Z,97.24
2018-08-18T03:19:47.011Z,97.33
2018-08-18T03:20:47.035Z,97.24
2018-08-18T03:21:46.985Z,96.83
2018-08-18T03:22:46.975Z,96.83
2018-08-18T03:23:46.968Z,97.13
2018-08-18T03:24:46.953Z,96.83
2018-08-18T03:25:46.937Z,97.13
2018-08-18T03:26:46.947Z,97.13
2018-08-18T03:27:46.920Z,97.13
2018-08-18T03:28:46.910Z,97.44
2018-08-18T03:29:46.889Z,97.28
2018-08-18T03:30:46.879Z,96.72
2018-08-18T03:31:46.898Z,97.08
2018-08-18T03:32:46.858Z,97.08
2018-08-18T03:33:46.842Z,97.17
2018-08-18T03:34:46.828Z,97.17
2018-08-18T03:35:46.826Z,96.77
2018-08-18T03:36:46.831Z,96.67
2018-08-18T03:37:46.797Z,96.41
2018-08-18T03:38:46.793Z,97.38
2018-08-18T03:39:46.769Z,97.28
2018-08-18T03:40:46.762Z,97.38
2018-08-18T03:41:46.782Z,97.17
2018-08-18T03:42:46.735Z,97.79
2018-08-18T03:43:46.727Z,97.89
2018-08-18T03:44:46.717Z,97.89
2018-08-18T03:45:46.708Z,98.50
2018-08-18T03:46:46.691Z,98.61
2018-08-18T03:47:46.702Z,97.99
2018-08-18T03:48:46.665Z,98.10
2018-08-18T03:49:46.655Z,97.38
2018-08-18T03:50:46.643Z,97.58
2018-08-18T03:51:46.632Z,97.79
2018-08-18T03:52:46.642Z,97.38
2018-08-18T03:53:46.604Z,97.89
2018-08-18T03:54:46.594Z,97.89
2018-08-18T03:55:46.580Z,97.89
2018-08-18T03:56:46.571Z,98.10
2018-08-18T03:57:46.579Z,98.30
2018-08-18T03:58:46.544Z,98.30
2018-08-18T03:59:46.532Z,98.30
2018-08-18T04:00:46.521Z,98.40
2018-08-18T04:01:46.511Z,98.50
2018-08-18T04:02:46.526Z,98.30
2018-08-18T04:03:46.482Z,98.50
2018-08-18T04:04:46.470Z,98.65
2018-08-18T04:05:46.467Z,98.45
2018-08-18T04:06:46.457Z,98.55
2018-08-18T04:07:46.462Z,98.55
2018-08-18T04:08:46.426Z,98.20
2018-08-18T04:09:46.418Z,98.24
2018-08-18T04:10:46.409Z,98.20
2018-08-18T04:11:46.388Z,98.04
2018-08-18T04:12:46.411Z,98.10
2018-08-18T04:13:46.366Z,98.30
2018-08-18T04:14:46.356Z,98.65
2018-08-18T04:15:46.341Z,98.20
2018-08-18T04:16:46.334Z,98.35
2018-08-18T04:17:46.350Z,98.24
2018-08-18T04:18:46.310Z,98.14
2018-08-18T04:19:46.303Z,98.55
2018-08-18T04:20:46.289Z,98.75
2018-08-18T04:21:46.269Z,98.55
2018-08-18T04:22:46.288Z,99.06
2018-08-18T04:23:46.251Z,99.11
2018-08-18T04:24:46.239Z,98.91
2018-08-18T04:25:46.224Z,98.91
2018-08-18T04:26:46.210Z,99.02
2018-08-18T04:27:46.238Z,99.11
2018-08-18T04:28:46.193Z,99.02
2018-08-18T04:29:46.175Z,99.02
2018-08-18T04:30:46.169Z,98.81
2018-08-18T04:31:46.162Z,99.06
2018-08-18T04:32:46.146Z,99.02
2018-08-18T04:33:46.154Z,99.02
2018-08-18T04:34:46.123Z,99.63
2018-08-18T04:35:46.102Z,98.91
2018-08-18T04:36:46.097Z,99.84
2018-08-18T04:37:46.084Z,99.02
2018-08-18T04:38:46.091Z,99.32
2018-08-18T04:39:46.067Z,99.22
2018-08-18T04:40:46.045Z,99.02
2018-08-18T04:41:46.038Z,99.11
2018-08-18T04:42:46.027Z,99.02
2018-08-18T04:43:46.043Z,98.91
2018-08-18T04:44:46.004Z,99.02
2018-08-18T04:45:45.988Z,98.91
2018-08-18T04:46:45.982Z,98.81
2018-08-18T04:47:45.957Z,98.91
2018-08-18T04:48:45.952Z,98.91
2018-08-18T04:49:45.957Z,98.71
2018-08-18T04:50:45.929Z,99.11
2018-08-18T04:51:45.920Z,99.11
2018-08-18T04:52:45.901Z,98.91
2018-08-18T04:53:45.892Z,99.32
2018-08-18T04:54:45.901Z,98.81
2018-08-18T04:55:45.869Z,98.91
2018-08-18T04:56:45.887Z,98.50
2018-08-18T04:57:45.840Z,98.61
2018-08-18T04:58:45.834Z,98.61
2018-08-18T04:59:45.848Z,98.61
2018-08-18T05:00:45.802Z,98.61
2018-08-18T05:01:45.798Z,98.71
2018-08-18T05:02:45.785Z,98.81
2018-08-18T05:03:45.770Z,98.40
2018-08-18T05:04:45.765Z,98.91
2018-08-18T05:05:45.771Z,98.50
2018-08-18T05:06:45.739Z,98.56
2018-08-18T05:07:45.723Z,98.50
2018-08-18T05:08:45.711Z,99.18
2018-08-18T05:09:45.702Z,98.50
2018-08-18T05:10:45.710Z,98.91
2018-08-18T05:11:45.754Z,98.66
2018-08-18T05:12:45.660Z,98.91
2018-08-18T05:13:45.655Z,98.97
2018-08-18T05:14:45.643Z,98.71
2018-08-18T05:15:45.646Z,98.86
2018-08-18T05:16:45.612Z,98.61
2018-08-18T05:17:45.604Z,98.71
2018-08-18T05:18:45.635Z,98.50
2018-08-18T05:19:45.580Z,98.46
2018-08-18T05:20:45.584Z,98.50
2018-08-18T05:21:45.555Z,98.50
2018-08-18T05:22:45.547Z,98.77
2018-08-18T05:23:45.530Z,98.56
2018-08-18T05:24:45.525Z,99.02
2018-08-18T05:25:45.537Z,98.36
2018-08-18T05:26:45.497Z,98.36
2018-08-18T05:27:45.487Z,98.15
2018-08-18T05:28:45.475Z,98.36
2018-08-18T05:29:45.462Z,97.74
2018-08-18T05:30:45.452Z,98.36
2018-08-18T05:31:45.466Z,98.66
2018-08-18T05:32:45.430Z,98.46
2018-08-18T05:33:45.417Z,98.66
2018-08-18T05:34:45.407Z,98.56
2018-08-18T05:35:45.424Z,98.46
2018-08-18T05:36:45.385Z,98.36
2018-08-18T05:37:45.370Z,98.15
2018-08-18T05:38:45.357Z,98.15
2018-08-18T05:39:45.347Z,98.05
2018-08-18T05:40:45.333Z,98.15
2018-08-18T05:41:45.346Z,98.05
2018-08-18T05:42:45.311Z,98.05
2018-08-18T05:43:45.301Z,98.25
2018-08-18T05:44:45.283Z,97.95
2018-08-18T05:45:45.279Z,98.00
2018-08-18T05:46:45.286Z,98.25
2018-08-18T05:47:45.258Z,97.90
2018-08-18T05:48:45.239Z,97.74
2018-08-18T05:49:45.232Z,98.11
2018-08-18T05:50:45.214Z,98.52
2018-08-18T05:51:45.241Z,98.00
2018-08-18T05:52:45.192Z,98.41
2018-08-18T05:53:45.183Z,97.96
2018-08-18T05:54:45.169Z,97.70
2018-08-18T05:55:45.160Z,97.29
2018-08-18T05:56:45.149Z,97.04
2018-08-18T05:57:45.165Z,97.49
2018-08-18T05:58:45.128Z,96.98
2018-08-18T05:59:45.130Z,97.14
2018-08-18T06:00:45.105Z,97.55
2018-08-18T06:01:45.084Z,97.45
2018-08-18T06:02:45.105Z,96.94
2018-08-18T06:03:45.062Z,97.24
2018-08-18T06:04:45.058Z,97.04
2018-08-18T06:05:45.131Z,96.79
2018-08-18T06:06:45.035Z,97.24
2018-08-18T06:07:45.039Z,96.59
2018-08-18T06:08:45.011Z,96.69
2018-08-18T06:09:44.995Z,96.08
2018-08-18T06:10:44.992Z,96.79
2018-08-18T06:11:44.971Z,96.38
2018-08-18T06:12:44.991Z,96.48
2018-08-18T06:13:44.951Z,96.18
2018-08-18T06:14:44.943Z,96.48
2018-08-18T06:15:44.924Z,97.25
2018-08-18T06:16:44.916Z,96.95
2018-08-18T06:17:44.902Z,96.44
2018-08-18T06:18:44.908Z,97.16
2018-08-18T06:19:44.884Z,96.95
2018-08-18T06:20:44.870Z,97.16
2018-08-18T06:21:44.853Z,96.84
2018-08-18T06:22:44.838Z,96.09
2018-08-18T06:23:44.854Z,96.80
2018-08-18T06:24:44.827Z,96.80
2018-08-18T06:25:44.803Z,97.06
2018-08-18T06:26:44.798Z,95.94
2018-08-18T06:27:44.786Z,96.76
2018-08-18T06:28:44.793Z,96.45
2018-08-18T06:29:44.769Z,96.41
2018-08-18T06:30:44.754Z,96.45
2018-08-18T06:31:44.738Z,96.20
2018-08-18T06:32:44.732Z,96.61
2018-08-18T06:33:44.733Z,96.36
2018-08-18T06:34:44.863Z,96.15
2018-08-18T06:35:44.693Z,96.36
2018-08-18T06:36:44.702Z,95.95
2018-08-18T06:37:44.662Z,96.06
2018-08-18T06:38:44.677Z,96.62
2018-08-18T06:39:44.640Z,96.42
2018-08-18T06:40:44.635Z,96.07
2018-08-18T06:41:44.753Z,96.37
2018-08-18T06:42:44.654Z,96.17
2018-08-18T06:43:44.624Z,96.07
2018-08-18T06:44:44.589Z,94.95
2018-08-18T06:45:44.567Z,94.60
2018-08-18T06:46:44.559Z,94.56
2018-08-18T06:47:44.550Z,94.56
2018-08-18T06:48:44.574Z,94.15
2018-08-18T06:49:44.524Z,93.70
2018-08-18T06:50:44.510Z,93.40
2018-08-18T06:51:44.507Z,93.09
2018-08-18T06:52:44.486Z,92.38
2018-08-18T06:53:44.485Z,90.92
2018-08-18T06:54:44.574Z,88.58
2018-08-18T06:55:44.460Z,89.15
2018-08-18T06:56:44.444Z,90.62
2018-08-18T06:57:44.434Z,89.72
2018-08-18T06:58:44.424Z,89.61
2018-08-18T06:59:44.445Z,88.86
2018-08-18T07:00:44.394Z,89.57
2018-08-18T07:01:44.392Z,88.35
2018-08-18T07:02:44.370Z,87.81
2018-08-18T07:03:44.367Z,87.51
2018-08-18T07:04:44.351Z,86.45
2018-08-18T07:05:44.393Z,87.87
2018-08-18T07:06:44.326Z,86.51
2018-08-18T07:07:44.318Z,85.90
2018-08-18T07:08:44.308Z,85.90
2018-08-18T07:09:44.288Z,84.28
2018-08-18T07:10:44.307Z,84.48
2018-08-18T07:11:44.265Z,85.76
2018-08-18T07:12:44.259Z,84.34
2018-08-18T07:13:44.244Z,85.46
2018-08-18T07:14:44.233Z,83.80
2018-08-18T07:15:44.246Z,83.29
2018-08-18T07:16:44.210Z,79.41
2018-08-18T07:17:44.201Z,80.53
2018-08-18T07:18:44.192Z,85.44
2018-08-18T07:19:44.173Z,85.34
2018-08-18T07:20:44.199Z,83.28
2018-08-18T07:21:44.153Z,82.33
2018-08-18T07:22:44.138Z,84.09
2018-08-18T07:23:44.136Z,83.48
2018-08-18T07:24:44.123Z,81.02
2018-08-18T07:25:44.105Z,80.41
2018-08-18T07:26:44.119Z,82.43
2018-08-18T07:27:44.084Z,80.78
2018-08-18T07:28:44.169Z,78.66
2018-08-18T07:29:44.055Z,78.92
2018-08-18T07:30:44.056Z,79.73
2018-08-18T07:31:44.065Z,80.78
2018-08-18T07:32:44.125Z,79.43
2018-08-18T07:33:44.011Z,79.53
2018-08-18T07:34:43.997Z,72.38
2018-08-18T07:35:43.997Z,79.63
2018-08-18T07:36:44.001Z,78.89
2018-08-18T07:37:43.967Z,72.54
2018-08-18T07:38:43.961Z,78.65
2018-08-18T07:39:44.364Z,76.14
2018-08-18T07:40:44.366Z,74.69
2018-08-18T07:41:44.011Z,75.56
2018-08-18T07:42:44.189Z,76.67
2018-08-18T07:43:43.894Z,75.02
2018-08-18T07:44:43.887Z,75.32
2018-08-18T07:45:43.875Z,76.39
2018-08-18T07:46:43.887Z,75.79
2018-08-18T07:47:43.879Z,74.48
2018-08-18T07:48:43.845Z,73.98
2018-08-18T07:49:43.824Z,75.38
2018-08-18T07:50:43.826Z,75.09
2018-08-18T07:51:43.824Z,76.25
2018-08-18T07:52:44.448Z,74.15
2018-08-18T07:53:43.814Z,74.28
2018-08-18T07:54:44.443Z,73.94
2018-08-18T07:55:43.757Z,72.00
2018-08-18T07:56:43.766Z,77.22
2018-08-18T07:57:43.737Z,69.09
2018-08-18T07:58:43.739Z,72.27
2018-08-18T07:59:43.737Z,67.05
2018-08-18T08:00:43.962Z,70.86
2018-08-18T08:01:43.719Z,74.84
2018-08-18T08:02:43.732Z,69.12
2018-08-18T08:03:43.662Z,71.43
2018-08-18T08:04:43.685Z,71.30
2018-08-18T08:05:43.888Z,72.50
2018-08-18T08:06:43.662Z,71.93
2018-08-18T08:07:43.644Z,69.09
2018-08-18T08:08:43.617Z,70.09
2018-08-18T08:09:44.164Z,67.49
2018-08-18T08:10:43.596Z,74.90
2018-08-18T08:11:43.575Z,68.89
2018-08-18T08:12:43.774Z,69.26
2018-08-18T08:13:43.562Z,67.29
2018-08-18T08:14:43.549Z,69.19
2018-08-18T08:15:43.531Z,66.75
2018-08-18T08:16:43.519Z,69.99
2018-08-18T08:17:43.538Z,68.96
2018-08-18T08:18:44.552Z,66.45
2018-08-18T08:19:43.512Z,64.25
2018-08-18T08:20:43.748Z,68.73
2018-08-18T08:21:43.468Z,71.53
2018-08-18T08:22:43.453Z,65.28
2018-08-18T08:23:43.469Z,66.16
2018-08-18T08:24:43.434Z,60.75
2018-08-18T08:25:43.419Z,66.36
2018-08-18T08:26:43.411Z,68.02
2018-08-18T08:27:43.397Z,70.32
2018-08-18T08:28:43.412Z,62.22
2018-08-18T08:29:43.373Z,66.69
2018-08-18T08:30:43.367Z,61.49
2018-08-18T08:31:43.359Z,68.96
2018-08-18T08:32:44.040Z,63.17
2018-08-18T08:33:43.366Z,67.72
2018-08-18T08:34:43.319Z,58.73
2018-08-18T08:35:43.311Z,54.94
2018-08-18T08:36:43.308Z,65.93
2018-08-18T08:37:43.284Z,66.03
2018-08-18T08:38:43.273Z,69.09
2018-08-18T08:39:43.294Z,62.81
2018-08-18T08:40:43.333Z,67.00
2018-08-18T08:41:43.256Z,63.40
2018-08-18T08:42:43.255Z,69.26
2018-08-18T08:43:43.247Z,63.67
2018-08-18T08:44:43.226Z,65.77
2018-08-18T08:45:43.200Z,61.68
2018-08-18T08:46:43.192Z,60.58
2018-08-18T08:47:43.212Z,65.87
2018-08-18T08:48:43.573Z,63.14
2018-08-18T08:49:43.826Z,52.67
2018-08-18T08:50:43.171Z,57.35
2018-08-18T08:51:43.153Z,53.44
2018-08-18T08:52:43.145Z,60.12
2018-08-18T08:53:43.121Z,49.25
2018-08-18T08:54:43.164Z,53.52
2018-08-18T08:55:43.086Z,59.69
2018-08-18T08:56:43.077Z,65.17
2018-08-18T08:57:43.066Z,70.06
2018-08-18T08:58:43.097Z,60.69
2018-08-18T08:59:43.110Z,62.08
2018-08-18T09:00:43.071Z,55.78
2018-08-18T09:01:43.059Z,45.62
2018-08-18T09:02:43.010Z,50.73
2018-08-18T09:03:43.039Z,45.64
2018-08-18T09:04:44.742Z,48.41
2018-08-18T09:05:43.002Z,59.77
2018-08-18T09:06:42.986Z,60.89
2018-08-18T09:07:43.087Z,60.26
2018-08-18T09:08:42.945Z,59.79
2018-08-18T09:09:45.516Z,62.35
2018-08-18T09:10:42.951Z,54.49
2018-08-18T09:11:42.922Z,52.39
2018-08-18T09:12:42.933Z,61.03
2018-08-18T09:13:42.899Z,60.21
2018-08-18T09:14:42.892Z,58.51
2018-08-18T09:15:42.903Z,57.32
2018-08-18T09:16:42.866Z,56.52
2018-08-18T09:17:42.857Z,56.72
2018-08-18T09:18:42.841Z,60.90
2018-08-18T09:19:42.828Z,57.42
2018-08-18T09:20:42.848Z,56.30
2018-08-18T09:21:42.822Z,57.59
2018-08-18T09:22:42.795Z,57.39
2018-08-18T09:23:42.794Z,58.69
2018-08-18T09:24:42.787Z,59.68
2018-08-18T09:25:42.794Z,58.48
2018-08-18T09:26:42.755Z,57.56
2018-08-18T09:27:42.747Z,48.02
2018-08-18T09:28:42.732Z,48.89
2018-08-18T09:29:42.731Z,46.31
2018-08-18T09:30:42.717Z,55.25
2018-08-18T09:31:42.726Z,63.70
2018-08-18T09:32:42.695Z,62.37
2018-08-18T09:33:42.684Z,58.90
2018-08-18T09:34:42.675Z,58.00
2018-08-18T09:35:42.668Z,61.18
2018-08-18T09:36:42.676Z,59.89
2018-08-18T09:37:42.640Z,61.55
2018-08-18T09:38:42.632Z,56.09
2018-08-18T09:39:42.626Z,58.04
2018-08-18T09:40:42.610Z,59.23
2018-08-18T09:41:42.636Z,54.28
2018-08-18T09:42:42.592Z,55.47
2018-08-18T09:43:42.578Z,57.45
2018-08-18T09:44:42.600Z,57.13
2018-08-18T09:45:42.601Z,55.34
2018-08-18T09:46:42.562Z,55.41
2018-08-18T09:47:42.602Z,53.01
2018-08-18T09:48:42.524Z,46.05
2018-08-18T09:49:42.517Z,52.59
2018-08-18T09:50:42.511Z,55.56
2018-08-18T09:51:42.496Z,46.15
2018-08-18T09:52:42.510Z,53.48
2018-08-18T09:53:42.479Z,52.39
2018-08-18T09:54:42.461Z,58.50
2018-08-18T09:55:42.460Z,55.73
2018-08-18T09:56:42.444Z,52.56
2018-08-18T09:57:42.469Z,49.10
2018-08-18T09:58:42.433Z,56.23
2018-08-18T09:59:42.412Z,56.74
2018-08-18T10:00:42.409Z,49.29
2018-08-18T10:01:42.389Z,49.00
2018-08-18T10:02:42.380Z,53.08
2018-08-18T10:03:42.399Z,51.10
2018-08-18T10:04:42.369Z,52.09
2018-08-18T10:05:42.349Z,51.60
2018-08-18T10:06:42.343Z,51.60
2018-08-18T10:07:42.330Z,50.90
2018-08-18T10:08:42.349Z,51.18
2018-08-18T10:09:42.312Z,47.31
2018-08-18T10:10:42.299Z,51.70
2018-08-18T10:11:42.297Z,52.86
2018-08-18T10:12:42.287Z,45.06
2018-08-18T10:13:42.291Z,57.34
2018-08-18T10:14:42.262Z,53.58
2018-08-18T10:15:42.253Z,51.10
2018-08-18T10:16:42.237Z,53.97
2018-08-18T10:17:42.234Z,48.05
2018-08-18T10:18:42.252Z,50.34
2018-08-18T10:19:42.206Z,44.19
2018-08-18T10:20:42.198Z,46.25
2018-08-18T10:21:42.184Z,55.26
2018-08-18T10:22:42.171Z,57.34
2018-08-18T10:23:42.163Z,52.26
2018-08-18T10:24:42.239Z,52.56
2018-08-18T10:25:42.140Z,48.60
2018-08-18T10:26:42.132Z,53.48
2018-08-18T10:27:42.125Z,56.62
2018-08-18T10:28:42.114Z,42.98
2018-08-18T10:29:42.125Z,55.93
2018-08-18T10:30:42.087Z,54.86
2018-08-18T10:31:42.085Z,52.07
2018-08-18T10:32:42.074Z,50.21
2018-08-18T10:33:42.055Z,50.71
2018-08-18T10:34:42.071Z,53.48
2018-08-18T10:35:42.039Z,53.97
2018-08-18T10:36:42.026Z,42.71
2018-08-18T10:37:42.020Z,40.01
2018-08-18T10:38:42.004Z,52.39
2018-08-18T10:39:42.029Z,57.44
2018-08-18T10:40:41.981Z,54.20
2018-08-18T10:41:41.977Z,53.53
2018-08-18T10:42:41.958Z,56.60
2018-08-18T10:43:41.955Z,54.82
2018-08-18T10:44:41.939Z,53.06
2018-08-18T10:45:41.951Z,51.50
2018-08-18T10:46:41.914Z,48.25
2018-08-18T10:47:41.907Z,51.82
2018-08-18T10:48:41.943Z,51.72
2018-08-18T10:49:41.916Z,45.76
2018-08-18T10:50:41.892Z,55.89
2018-08-18T10:51:41.956Z,51.72
2018-08-18T10:52:41.854Z,57.78
2018-08-18T10:53:41.840Z,55.72
2018-08-18T10:54:41.892Z,42.41
2018-08-18T10:55:41.846Z,51.05
2018-08-18T10:56:41.807Z,56.91
2018-08-18T10:57:41.815Z,57.21
2018-08-18T10:58:41.786Z,55.82
2018-08-18T10:59:41.765Z,44.52
2018-08-18T11:00:41.753Z,51.57
2018-08-18T11:01:41.774Z,51.07
2018-08-18T11:02:41.737Z,47.80
2018-08-18T11:03:41.721Z,46.20
2018-08-18T11:04:41.716Z,47.20
2018-08-18T11:05:41.696Z,45.21
2018-08-18T11:06:41.710Z,53.96
2018-08-18T11:07:41.684Z,58.83
2018-08-18T11:08:41.671Z,48.69
2018-08-18T11:09:41.656Z,48.39
2018-08-18T11:10:41.648Z,43.72
2018-08-18T11:11:41.658Z,58.03
2018-08-18T11:12:41.621Z,56.84
2018-08-18T11:13:41.608Z,60.42
2018-08-18T11:14:41.775Z,59.32
2018-08-18T11:15:41.590Z,60.91
2018-08-18T11:16:41.578Z,49.46
2018-08-18T11:17:41.589Z,60.19
2018-08-18T11:18:41.557Z,57.21
2018-08-18T11:19:41.543Z,49.36
2018-08-18T11:20:41.537Z,58.17
2018-08-18T11:21:41.565Z,56.41
2018-08-18T11:22:41.533Z,57.28
2018-08-18T11:23:41.499Z,47.17
2018-08-18T11:24:41.485Z,50.23
2018-08-18T11:25:41.472Z,55.49
2018-08-18T11:26:41.463Z,56.21
2018-08-18T11:27:41.448Z,55.69
2018-08-18T11:28:41.678Z,54.50
2018-08-18T11:29:41.425Z,58.70
2018-08-18T11:30:41.414Z,53.33
2018-08-18T11:31:41.406Z,57.21
2018-08-18T11:32:41.388Z,56.51
2018-08-18T11:33:41.411Z,51.05
2018-08-18T11:34:41.369Z,57.38
2018-08-18T11:35:41.364Z,52.14
2018-08-18T11:36:41.348Z,51.82
2018-08-18T11:37:41.338Z,55.59
2018-08-18T11:38:41.361Z,52.44
2018-08-18T11:39:41.318Z,52.12
2018-08-18T11:40:41.315Z,48.65
2018-08-18T11:41:41.393Z,49.02
2018-08-18T11:42:41.279Z,49.21
2018-08-18T11:43:41.269Z,45.37
2018-08-18T11:44:41.276Z,56.46
2018-08-18T11:45:41.252Z,55.79
2018-08-18T11:46:41.230Z,53.78
2018-08-18T11:47:41.228Z,49.14
2018-08-18T11:48:41.216Z,58.17
2018-08-18T11:49:41.218Z,52.89
2018-08-18T11:50:41.192Z,50.23
2018-08-18T11:51:41.177Z,43.38
2018-08-18T11:52:41.168Z,51.32
2018-08-18T11:53:41.152Z,50.73
2018-08-18T11:54:41.169Z,56.26
2018-08-18T11:55:41.133Z,53.11
2018-08-18T11:56:41.122Z,55.59
2018-08-18T11:57:41.109Z,44.57
2018-08-18T11:58:41.099Z,49.81
2018-08-18T11:59:41.111Z,54.87
2018-08-18T12:00:41.082Z,53.38
2018-08-18T12:01:41.058Z,49.51
2018-08-18T12:02:41.058Z,56.04
2018-08-18T12:03:41.036Z,52.89
2018-08-18T12:04:41.057Z,43.34
2018-08-18T12:05:41.018Z,50.40
2018-08-18T12:06:41.003Z,41.95
2018-08-18T12:07:41.000Z,45.32
2018-08-18T12:08:40.982Z,54.15
2018-08-18T12:09:41.007Z,50.56
2018-08-18T12:10:41.031Z,54.92
2018-08-18T12:11:40.945Z,55.91
2018-08-18T12:12:40.944Z,50.46
2018-08-18T12:13:40.925Z,41.44
2018-08-18T12:14:40.915Z,49.15
2018-08-18T12:15:40.933Z,47.86
2018-08-18T12:16:40.889Z,57.17
2018-08-18T12:17:40.880Z,53.58
2018-08-18T12:18:40.865Z,52.09
2018-08-18T12:19:40.890Z,45.36
2018-08-18T12:20:40.850Z,53.48
2018-08-18T12:21:40.838Z,52.07
2018-08-18T12:22:40.829Z,52.17
2018-08-18T12:23:40.868Z,54.17
2018-08-18T12:24:40.840Z,46.72
2018-08-18T12:25:40.868Z,44.84
2018-08-18T12:26:40.802Z,54.94
2018-08-18T12:27:40.801Z,52.07
2018-08-18T12:28:40.751Z,50.78
2018-08-18T12:29:40.777Z,44.62
2018-08-18T12:30:40.757Z,45.90
2018-08-18T12:31:40.725Z,39.87
2018-08-18T12:32:42.630Z,40.17
2018-08-18T12:33:40.699Z,47.52
2018-08-18T12:34:41.226Z,42.74
2018-08-18T12:35:40.778Z,43.85
2018-08-18T12:36:40.784Z,49.07
2018-08-18T12:37:40.682Z,42.35
2018-08-18T12:38:40.642Z,45.79
2018-08-18T12:39:44.573Z,50.06
2018-08-18T12:40:40.974Z,45.68
2018-08-18T12:41:40.600Z,47.86
2018-08-18T12:42:40.599Z,47.84
2018-08-18T12:43:40.579Z,36.77
2018-08-18T12:44:40.568Z,53.15
2018-08-18T12:45:40.560Z,47.72
2018-08-18T12:46:40.570Z,48.02
2018-08-18T12:47:40.532Z,39.81
2018-08-18T12:48:40.521Z,53.03
2018-08-18T12:49:40.603Z,52.44
2018-08-18T12:50:40.498Z,42.26
2018-08-18T12:51:40.528Z,42.26
2018-08-18T12:52:40.479Z,43.31